createdAt,value
2023-04-18T00:00:18.009Z,77.12
2023-04-18T00:03:18.035Z,77.26
2023-04-18T00:06:07.616Z,77.15
2023-04-18T00:08:57.290Z,77.29
2023-04-18T00:11:46.615Z,77.37
2023-04-18T00:14:37.950Z,77.52
2023-04-18T00:17:27.756Z,77.51
2023-04-18T00:20:16.582Z,77.43
2023-04-18T00:23:06.312Z,77.69
2023-04-18T00:25:55.351Z,77.51
2023-04-18T00:28:45.019Z,77.59
2023-04-18T00:31:34.250Z,77.48
2023-04-18T00:34:23.661Z,77.63
2023-04-18T00:37:15.426Z,77.43
2023-04-18T00:40:05.844Z,77.44
2023-04-18T00:42:54.848Z,77.82
2023-04-18T00:45:43.560Z,77.83
2023-04-18T00:48:32.768Z,77.61
2023-04-18T00:51:21.894Z,77.67
2023-04-18T00:54:13.583Z,77.72
2023-04-18T00:57:03.262Z,77.96
2023-04-18T00:59:52.399Z,77.79
2023-04-18T01:02:41.647Z,77.91
2023-04-18T01:05:30.945Z,77.90
2023-04-18T01:08:20.584Z,77.94
2023-04-18T01:11:09.589Z,78.05
2023-04-18T01:14:02.335Z,78.00
2023-04-18T01:16:51.347Z,77.98
2023-04-18T01:19:41.666Z,78.01
2023-04-18T01:22:30.682Z,77.92
2023-04-18T01:25:19.676Z,77.95
2023-04-18T01:28:09.955Z,77.95
2023-04-18T01:30:59.972Z,77.89
2023-04-18T01:33:49.139Z,77.91
2023-04-18T01:36:38.373Z,78.05
2023-04-18T01:39:27.431Z,77.94
2023-04-18T01:42:16.598Z,78.13
2023-04-18T01:45:07.536Z,78.07
2023-04-18T01:47:56.513Z,78.32
2023-04-18T01:50:45.478Z,78.27
2023-04-18T01:53:34.271Z,78.22
2023-04-18T01:56:23.512Z,78.42
2023-04-18T01:59:12.728Z,78.49
2023-04-18T02:02:01.858Z,78.52
2023-04-18T02:04:51.199Z,78.53
2023-04-18T02:07:40.065Z,78.65
2023-04-18T02:10:29.576Z,78.79
2023-04-18T02:13:18.768Z,78.84
2023-04-18T02:16:11.966Z,78.83
2023-04-18T02:19:01.602Z,79.02
2023-04-18T02:21:50.452Z,78.83
2023-04-18T02:24:39.172Z,78.83
2023-04-18T02:27:28.273Z,79.02
2023-04-18T02:30:18.933Z,79.07
2023-04-18T02:33:08.599Z,79.17
2023-04-18T02:35:57.760Z,79.27
2023-04-18T02:38:47.197Z,79.29
2023-04-18T02:41:37.747Z,79.31
2023-04-18T02:44:26.671Z,79.26
2023-04-18T02:47:17.216Z,79.32
2023-04-18T02:50:08.561Z,79.32
2023-04-18T02:52:58.233Z,79.49
2023-04-18T02:55:52.798Z,79.40
2023-04-18T02:58:42.444Z,79.46
2023-04-18T03:01:48.778Z,79.56
2023-04-18T03:04:40.914Z,79.60
2023-04-18T03:07:31.916Z,79.50
2023-04-18T03:10:21.733Z,79.47
2023-04-18T03:13:10.668Z,79.42
2023-04-18T03:16:01.174Z,79.69
2023-04-18T03:18:50.894Z,79.66
2023-04-18T03:21:40.340Z,79.68
2023-04-18T03:24:29.922Z,79.72
2023-04-18T03:27:21.386Z,79.67
2023-04-18T03:30:11.305Z,79.65
2023-04-18T03:33:02.953Z,79.71
2023-04-18T03:35:53.359Z,79.94
2023-04-18T03:38:42.464Z,79.92
2023-04-18T03:41:31.422Z,79.88
2023-04-18T03:44:20.293Z,79.84
2023-04-18T03:47:09.588Z,79.85
2023-04-18T03:49:59.634Z,79.95
2023-04-18T03:52:49.280Z,80.06
2023-04-18T03:55:39.369Z,80.23
2023-04-18T03:58:29.232Z,80.16
2023-04-18T04:01:18.513Z,80.37
2023-04-18T04:04:09.396Z,80.31
2023-04-18T04:06:58.607Z,80.39
2023-04-18T04:09:47.873Z,80.43
2023-04-18T04:12:38.408Z,80.52
2023-04-18T04:15:28.690Z,80.52
2023-04-18T04:18:25.470Z,80.72
2023-04-18T04:21:15.787Z,80.68
2023-04-18T04:24:09.538Z,80.64
2023-04-18T04:27:01.460Z,80.47
2023-04-18T04:29:52.246Z,80.48
2023-04-18T04:32:41.448Z,80.48
2023-04-18T04:35:32.263Z,80.58
2023-04-18T04:38:23.819Z,80.60
2023-04-18T04:41:15.264Z,80.44
2023-04-18T04:44:04.280Z,80.43
2023-04-18T04:46:54.578Z,80.48
2023-04-18T04:49:45.922Z,80.65
2023-04-18T04:52:35.095Z,80.64
2023-04-18T04:55:25.776Z,80.40
2023-04-18T04:58:14.969Z,80.46
2023-04-18T05:01:36.502Z,80.65
2023-04-18T05:04:26.119Z,80.68
2023-04-18T05:07:15.461Z,80.53
2023-04-18T05:10:04.829Z,80.50
2023-04-18T05:12:53.839Z,80.50
2023-04-18T05:15:43.187Z,80.62
2023-04-18T05:18:34.339Z,80.56
2023-04-18T05:21:26.064Z,80.69
2023-04-18T05:24:15.261Z,80.47
2023-04-18T05:27:04.649Z,80.44
2023-04-18T05:29:53.556Z,80.51
2023-04-18T05:32:44.898Z,80.44
2023-04-18T05:35:34.318Z,80.45
2023-04-18T05:38:23.532Z,80.58
2023-04-18T05:41:13.213Z,80.53
2023-04-18T05:44:05.615Z,80.52
2023-04-18T05:47:06.879Z,80.45
2023-04-18T05:49:55.994Z,80.63
2023-04-18T05:52:47.875Z,80.68
2023-04-18T05:55:36.713Z,80.70
2023-04-18T05:58:25.916Z,80.53
2023-04-18T06:01:16.573Z,80.88
2023-04-18T06:04:06.383Z,80.58
2023-04-18T06:06:55.862Z,80.57
2023-04-18T06:09:45.599Z,80.78
2023-04-18T06:12:34.571Z,80.77
2023-04-18T06:15:23.897Z,80.79
2023-04-18T06:18:12.822Z,80.44
2023-04-18T06:21:01.781Z,80.59
2023-04-18T06:23:51.287Z,80.16
2023-04-18T06:26:40.526Z,80.08
2023-04-18T06:29:33.139Z,80.08
2023-04-18T06:32:22.835Z,80.14
2023-04-18T06:35:12.355Z,80.05
2023-04-18T06:38:01.297Z,80.20
2023-04-18T06:40:50.486Z,79.90
2023-04-18T06:43:49.168Z,79.80
2023-04-18T06:46:49.163Z,80.04
2023-04-18T06:49:38.552Z,79.92
2023-04-18T06:52:27.894Z,79.86
2023-04-18T06:55:17.274Z,80.03
2023-04-18T06:58:06.380Z,79.98
2023-04-18T07:00:55.286Z,80.05
2023-04-18T07:03:44.584Z,80.01
2023-04-18T07:06:33.761Z,79.99
2023-04-18T07:09:23.764Z,79.89
2023-04-18T07:12:13.090Z,79.63
2023-04-18T07:15:02.164Z,79.58
2023-04-18T07:17:51.336Z,79.39
2023-04-18T07:20:40.573Z,79.40
2023-04-18T07:23:29.849Z,79.52
2023-04-18T07:26:19.369Z,79.44
2023-04-18T07:29:08.493Z,79.85
2023-04-18T07:31:58.043Z,79.68
2023-04-18T07:34:47.155Z,79.54
2023-04-18T07:37:36.272Z,79.51
2023-04-18T07:40:28.174Z,79.56
2023-04-18T07:43:18.111Z,79.48
2023-04-18T07:46:08.988Z,79.44
2023-04-18T07:48:58.191Z,79.29
2023-04-18T07:51:46.826Z,79.25
2023-04-18T07:54:35.957Z,79.32
2023-04-18T07:57:25.170Z,79.10
2023-04-18T08:00:15.885Z,79.09
2023-04-18T08:03:05.572Z,79.08
2023-04-18T08:05:54.711Z,78.73
2023-04-18T08:08:43.978Z,78.21
2023-04-18T08:11:33.184Z,77.87
2023-04-18T08:14:22.319Z,77.91
2023-04-18T08:17:11.672Z,77.80
2023-04-18T08:20:05.070Z,77.54
2023-04-18T08:23:04.772Z,77.27
2023-04-18T08:25:55.847Z,77.17
2023-04-18T08:28:46.577Z,76.84
2023-04-18T08:31:35.741Z,76.83
2023-04-18T08:34:24.880Z,76.55
2023-04-18T08:37:14.479Z,76.37
2023-04-18T08:40:04.948Z,76.08
2023-04-18T08:42:54.098Z,75.80
2023-04-18T08:45:43.508Z,75.41
2023-04-18T08:48:33.456Z,75.46
2023-04-18T08:51:23.052Z,74.91
2023-04-18T08:54:12.484Z,74.67
2023-04-18T08:57:07.769Z,74.20
2023-04-18T08:59:56.765Z,73.74
2023-04-18T09:02:46.954Z,73.43
2023-04-18T09:05:36.486Z,73.10
2023-04-18T09:08:25.644Z,72.66
2023-04-18T09:11:29.122Z,71.82
2023-04-18T09:14:26.124Z,71.30
2023-04-18T09:17:16.422Z,70.69
2023-04-18T09:20:06.311Z,70.59
2023-04-18T09:22:58.152Z,70.20
2023-04-18T09:25:48.264Z,70.05
2023-04-18T09:28:37.692Z,69.77
2023-04-18T09:31:26.550Z,69.04
2023-04-18T09:34:25.112Z,68.37
2023-04-18T09:37:14.556Z,67.75
2023-04-18T09:40:04.399Z,67.62
2023-04-18T09:42:54.335Z,66.77
2023-04-18T09:45:43.154Z,66.63
2023-04-18T09:48:32.322Z,66.55
2023-04-18T09:51:22.453Z,66.41
2023-04-18T09:54:12.179Z,66.23
2023-04-18T09:57:01.832Z,66.25
2023-04-18T09:59:52.209Z,66.30
2023-04-18T10:02:45.987Z,66.09
2023-04-18T10:05:36.022Z,65.85
2023-04-18T10:08:24.973Z,66.02
2023-04-18T10:11:14.175Z,66.04
2023-04-18T10:14:03.898Z,65.86
2023-04-18T10:16:53.347Z,65.81
2023-04-18T10:19:44.323Z,66.30
2023-04-18T10:22:33.978Z,66.05
2023-04-18T10:25:48.499Z,66.09
2023-04-18T10:28:54.644Z,66.16
2023-04-18T10:31:47.981Z,65.96
2023-04-18T10:34:39.348Z,65.72
2023-04-18T10:37:29.076Z,65.92
2023-04-18T10:40:18.720Z,65.97
2023-04-18T10:43:07.954Z,65.85
2023-04-18T10:46:27.900Z,66.03
2023-04-18T10:49:20.434Z,65.93
2023-04-18T10:52:11.737Z,65.60
2023-04-18T10:55:08.884Z,65.36
2023-04-18T10:57:58.573Z,64.97
2023-04-18T11:00:48.062Z,64.99
2023-04-18T11:03:36.970Z,65.00
2023-04-18T11:06:27.329Z,64.96
2023-04-18T11:09:16.806Z,64.72
2023-04-18T11:12:12.191Z,64.54
2023-04-18T11:15:02.829Z,64.01
2023-04-18T11:17:58.761Z,64.21
2023-04-18T11:20:51.013Z,64.27
2023-04-18T11:23:40.467Z,64.09
2023-04-18T11:26:30.813Z,63.90
2023-04-18T11:29:19.900Z,63.88
2023-04-18T11:32:09.849Z,63.82
2023-04-18T11:34:59.157Z,63.71
2023-04-18T11:37:50.125Z,63.47
2023-04-18T11:40:39.301Z,63.55
2023-04-18T11:43:28.584Z,63.30
2023-04-18T11:46:18.108Z,63.49
2023-04-18T11:49:07.108Z,63.16
2023-04-18T11:51:56.449Z,62.96
2023-04-18T11:54:45.664Z,62.92
2023-04-18T11:57:35.521Z,62.77
2023-04-18T12:00:33.046Z,62.71
2023-04-18T12:03:22.778Z,62.74
2023-04-18T12:06:12.304Z,62.49
2023-04-18T12:09:01.584Z,62.78
2023-04-18T12:12:00.948Z,62.58
2023-04-18T12:14:51.019Z,62.76
2023-04-18T12:17:40.430Z,62.76
2023-04-18T12:20:36.582Z,62.62
2023-04-18T12:23:32.447Z,62.51
2023-04-18T12:26:23.055Z,62.25
2023-04-18T12:29:12.147Z,61.96
2023-04-18T12:32:01.802Z,61.87
2023-04-18T12:34:50.866Z,61.95
2023-04-18T12:37:39.843Z,61.95
2023-04-18T12:40:29.321Z,61.64
2023-04-18T12:43:18.569Z,61.54
2023-04-18T12:46:07.682Z,61.46
2023-04-18T12:48:57.864Z,60.99
2023-04-18T12:51:46.911Z,60.79
2023-04-18T12:54:37.916Z,60.96
2023-04-18T12:57:27.053Z,60.70
2023-04-18T13:00:17.123Z,60.22
2023-04-18T13:03:06.798Z,59.71
2023-04-18T13:05:56.208Z,59.47
2023-04-18T13:08:47.519Z,59.31
2023-04-18T13:11:36.451Z,59.33
2023-04-18T13:14:26.540Z,58.91
2023-04-18T13:17:15.503Z,58.29
2023-04-18T13:20:06.549Z,58.27
2023-04-18T13:22:55.843Z,58.35
2023-04-18T13:25:45.016Z,58.67
2023-04-18T13:28:34.870Z,58.37
2023-04-18T13:31:24.229Z,58.11
2023-04-18T13:34:13.569Z,58.19
2023-04-18T13:37:02.542Z,58.42
2023-04-18T13:39:51.599Z,58.46
2023-04-18T13:42:59.375Z,58.76
2023-04-18T13:45:48.966Z,58.76
2023-04-18T13:48:38.107Z,59.10
2023-04-18T13:51:27.642Z,59.42
2023-04-18T13:54:17.085Z,59.84
2023-04-18T13:57:11.544Z,59.95
2023-04-18T14:00:00.514Z,60.16
2023-04-18T14:02:52.388Z,60.01
2023-04-18T14:05:41.236Z,60.12
2023-04-18T14:08:30.687Z,60.33
2023-04-18T14:11:19.441Z,60.49
2023-04-18T14:14:11.463Z,60.41
2023-04-18T14:17:01.446Z,60.23
2023-04-18T14:19:51.625Z,60.70
2023-04-18T14:22:41.968Z,60.71
2023-04-18T14:25:33.008Z,60.72
2023-04-18T14:32:20.036Z,60.45
2023-04-18T14:35:11.045Z,60.63
2023-04-18T14:37:59.937Z,60.53
2023-04-18T14:40:49.224Z,60.65
2023-04-18T14:43:38.947Z,60.74
2023-04-18T14:46:29.296Z,61.14
2023-04-18T14:49:18.600Z,61.24
2023-04-18T14:52:11.519Z,61.18
2023-04-18T14:55:00.960Z,61.18
2023-04-18T14:57:50.391Z,61.27
2023-04-18T15:00:39.540Z,61.47
2023-04-18T15:03:29.201Z,61.62
2023-04-18T15:06:18.572Z,61.69
2023-04-18T15:09:07.918Z,61.95
2023-04-18T15:11:58.391Z,61.82
2023-04-18T15:14:47.824Z,61.92
2023-04-18T15:17:36.688Z,61.99
2023-04-18T15:20:25.577Z,62.05
2023-04-18T15:23:14.836Z,61.98
2023-04-18T15:26:03.914Z,62.00
2023-04-18T15:28:53.405Z,62.18
2023-04-18T15:31:42.657Z,62.11
2023-04-18T15:34:31.980Z,62.24
2023-04-18T15:37:21.601Z,62.17
2023-04-18T15:40:16.196Z,62.08
2023-04-18T15:43:06.084Z,62.18
2023-04-18T15:45:55.651Z,62.20
2023-04-18T15:48:45.792Z,62.26
2023-04-18T15:51:35.065Z,62.31
2023-04-18T15:54:24.390Z,62.27
2023-04-18T15:57:13.832Z,62.25
2023-04-18T16:00:04.339Z,62.33
2023-04-18T16:02:55.033Z,62.18
2023-04-18T16:05:44.142Z,62.16
2023-04-18T16:08:34.178Z,62.21
2023-04-18T16:11:26.174Z,62.20
2023-04-18T16:14:15.546Z,62.24
2023-04-18T16:17:04.870Z,62.12
2023-04-18T16:19:54.290Z,62.11
2023-04-18T16:22:43.523Z,62.09
2023-04-18T16:25:32.758Z,62.08
2023-04-18T16:28:21.738Z,62.07
2023-04-18T16:31:11.270Z,62.06
2023-04-18T16:34:00.833Z,62.14
2023-04-18T16:36:51.173Z,62.05
2023-04-18T16:39:40.820Z,62.01
2023-04-18T16:42:29.720Z,61.92
2023-04-18T16:45:18.967Z,61.78
2023-04-18T16:48:08.811Z,61.59
2023-04-18T16:50:57.990Z,61.51
2023-04-18T16:53:47.296Z,61.38
2023-04-18T16:56:36.882Z,61.40
2023-04-18T16:59:26.091Z,61.39
2023-04-18T17:02:15.210Z,61.24
2023-04-18T17:05:13.582Z,61.17
2023-04-18T17:08:03.875Z,61.08
2023-04-18T17:10:54.229Z,60.95
2023-04-18T17:13:43.487Z,60.87
2023-04-18T17:16:32.639Z,60.97
2023-04-18T17:19:21.541Z,60.98
2023-04-18T17:22:11.328Z,61.09
2023-04-18T17:25:01.803Z,61.05
2023-04-18T17:27:51.327Z,61.02
2023-04-18T17:30:42.751Z,61.08
2023-04-18T17:33:31.649Z,61.06
2023-04-18T17:36:21.219Z,61.11
2023-04-18T17:39:11.119Z,61.13
2023-04-18T17:42:02.210Z,61.10
2023-04-18T17:44:51.063Z,61.19
2023-04-18T17:47:40.925Z,61.37
2023-04-18T17:50:30.476Z,61.34
2023-04-18T17:53:22.365Z,61.45
2023-04-18T17:56:12.046Z,61.64
2023-04-18T17:59:01.220Z,61.75
2023-04-18T18:01:50.121Z,61.84
2023-04-18T18:04:39.430Z,61.89
2023-04-18T18:07:34.810Z,61.88
2023-04-18T18:10:24.547Z,61.88
2023-04-18T18:13:14.038Z,61.95
2023-04-18T18:16:04.011Z,62.07
2023-04-18T18:18:56.328Z,62.31
2023-04-18T18:21:45.395Z,62.34
2023-04-18T18:24:34.536Z,62.25
2023-04-18T18:27:23.721Z,62.30
2023-04-18T18:30:13.536Z,62.40
2023-04-18T18:33:03.466Z,62.54
2023-04-18T18:35:53.737Z,62.66
2023-04-18T18:38:42.980Z,62.67
2023-04-18T18:41:31.880Z,62.73
2023-04-18T18:44:21.304Z,62.73
2023-04-18T18:47:10.463Z,62.94
2023-04-18T18:49:59.522Z,63.05
2023-04-18T18:52:48.944Z,63.09
2023-04-18T18:55:37.927Z,63.12
2023-04-18T18:58:27.149Z,63.12
2023-04-18T19:01:16.024Z,63.09
2023-04-18T19:04:05.513Z,63.12
2023-04-18T19:06:54.752Z,62.97
2023-04-18T19:09:45.466Z,62.96
2023-04-18T19:12:34.677Z,62.85
2023-04-18T19:15:27.272Z,62.75
2023-04-18T19:18:18.159Z,62.69
2023-04-18T19:21:07.473Z,62.61
2023-04-18T19:23:56.848Z,62.57
2023-04-18T19:26:45.753Z,62.46
2023-04-18T19:29:34.547Z,62.42
2023-04-18T19:32:23.741Z,62.44
2023-04-18T19:35:13.355Z,62.56
2023-04-18T19:38:02.847Z,62.57
2023-04-18T19:40:51.986Z,62.53
2023-04-18T19:43:42.628Z,62.49
2023-04-18T19:46:31.683Z,62.50
2023-04-18T19:49:22.554Z,62.37
2023-04-18T19:52:11.549Z,62.42
2023-04-18T19:55:02.333Z,62.42
2023-04-18T19:57:55.698Z,62.32
2023-04-18T20:00:45.097Z,62.32
2023-04-18T20:03:34.890Z,62.23
2023-04-18T20:06:25.290Z,62.41
2023-04-18T20:09:17.004Z,62.35
2023-04-18T20:12:06.368Z,62.24
2023-04-18T20:14:55.687Z,62.39
2023-04-18T20:17:45.528Z,62.51
2023-04-18T20:20:34.883Z,62.43
2023-04-18T20:23:23.829Z,62.52
2023-04-18T20:26:13.494Z,62.47
2023-04-18T20:29:03.692Z,62.66
2023-04-18T20:31:52.631Z,62.64
2023-04-18T20:34:42.441Z,62.78
2023-04-18T20:37:36.681Z,62.87
2023-04-18T20:40:26.219Z,62.81
2023-04-18T20:43:17.558Z,63.10
2023-04-18T20:46:07.039Z,63.18
2023-04-18T20:48:56.230Z,63.21
2023-04-18T20:51:45.926Z,63.34
2023-04-18T20:54:35.265Z,63.53
2023-04-18T20:57:24.554Z,63.70
2023-04-18T21:00:14.441Z,63.80
2023-04-18T21:03:03.870Z,64.01
2023-04-18T21:05:52.682Z,64.09
2023-04-18T21:08:41.940Z,64.18
2023-04-18T21:11:31.370Z,64.24
2023-04-18T21:14:20.213Z,64.48
2023-04-18T21:17:10.574Z,64.42
2023-04-18T21:20:00.034Z,64.70
2023-04-18T21:22:49.216Z,64.65
2023-04-18T21:25:38.634Z,65.05
2023-04-18T21:28:27.897Z,65.00
2023-04-18T21:31:17.081Z,65.22
2023-04-18T21:34:06.411Z,65.37
2023-04-18T21:36:55.828Z,65.34
2023-04-18T21:39:44.671Z,65.56
2023-04-18T21:42:35.248Z,65.60
2023-04-18T21:45:24.664Z,65.66
2023-04-18T21:48:14.511Z,65.76
2023-04-18T21:51:03.704Z,65.97
2023-04-18T21:53:53.072Z,65.95
2023-04-18T21:56:43.003Z,66.11
2023-04-18T21:59:31.929Z,66.18
2023-04-18T22:02:22.178Z,66.34
2023-04-18T22:05:13.037Z,66.51
2023-04-18T22:08:03.417Z,66.49
2023-04-18T22:10:54.917Z,66.55
2023-04-18T22:13:45.171Z,66.93
2023-04-18T22:16:34.554Z,66.87
2023-04-18T22:19:24.838Z,66.86
2023-04-18T22:22:14.591Z,66.95
2023-04-18T22:25:03.652Z,67.05
2023-04-18T22:27:52.962Z,67.13
2023-04-18T22:30:42.438Z,67.21
2023-04-18T22:33:31.508Z,67.31
2023-04-18T22:36:20.959Z,67.29
2023-04-18T22:39:10.088Z,67.47
2023-04-18T22:41:59.275Z,67.58
2023-04-18T22:44:48.702Z,67.61
2023-04-18T22:47:37.397Z,67.80
2023-04-18T22:50:27.414Z,67.88
2023-04-18T22:53:16.227Z,68.07
2023-04-18T22:56:05.749Z,67.93
2023-04-18T22:58:54.643Z,68.10
2023-04-18T23:01:43.875Z,68.27
2023-04-18T23:04:34.667Z,68.34
2023-04-18T23:07:23.844Z,68.27
2023-04-18T23:10:13.499Z,68.59
2023-04-18T23:13:02.738Z,68.85
2023-04-18T23:15:51.845Z,68.74
2023-04-18T23:18:41.087Z,68.95
2023-04-18T23:21:31.311Z,69.00
2023-04-18T23:24:20.756Z,69.10
2023-04-18T23:27:10.081Z,69.59
2023-04-18T23:29:59.290Z,69.50
2023-04-18T23:32:48.492Z,69.65
2023-04-18T23:35:37.971Z,69.84
2023-04-18T23:38:27.151Z,69.84
2023-04-18T23:41:16.647Z,70.16
2023-04-18T23:44:05.773Z,70.40
2023-04-18T23:46:54.825Z,70.54
2023-04-18T23:49:43.860Z,70.64
2023-04-18T23:52:33.237Z,70.97
2023-04-18T23:55:22.710Z,71.00
2023-04-18T23:58:12.029Z,70.83
